Time;durP1;ratioP1;P1;durP2;ratioP2;P2;SDS_P1;SDS_P2;PMS_P1;PMS_P2;Temp;Humidity;BMP_temperature;BMP_pressure;BME280_temperature;BME280_humidity;BME280_pressure;Samples;Min_cycle;Max_cycle;Signal;HPM_P1;HPM_P2
2021/11/30 00:01:47;;;;;;;4.45;3.00;;;5.60;99.90;;;;;;5018538;28;20556;-53
2021/11/30 00:04:14;;;;;;;4.20;3.30;;;5.60;99.90;;;;;;5018936;28;20133;-56
2021/11/30 00:06:42;;;;;;;5.63;3.33;;;5.60;99.90;;;;;;5020858;28;20122;-55
2021/11/30 00:12:21;;;;;;;5.07;2.75;;;5.60;99.90;;;;;;5015913;28;20164;-54
2021/11/30 00:14:50;;;;;;;4.97;3.00;;;5.50;99.90;;;;;;5016632;28;20473;-55
2021/11/30 00:17:17;;;;;;;3.85;2.97;;;5.60;99.90;;;;;;5018789;28;20120;-54
2021/11/30 00:19:44;;;;;;;3.75;3.22;;;5.60;99.90;;;;;;5018991;28;20507;-56
2021/11/30 00:22:12;;;;;;;4.30;3.10;;;5.70;99.90;;;;;;5019193;28;20073;-56
2021/11/30 00:24:39;;;;;;;4.75;3.40;;;5.70;99.90;;;;;;5020090;28;20577;-54
2021/11/30 00:27:10;;;;;;;4.07;3.08;;;5.80;99.90;;;;;;5019072;28;20057;-56
2021/11/30 00:29:37;;;;;;;3.83;2.90;;;5.80;99.90;;;;;;5018954;28;20100;-56
2021/11/30 00:32:05;;;;;;;3.97;2.83;;;5.80;99.90;;;;;;5020661;28;20099;-56
2021/11/30 00:34:32;;;;;;;3.78;2.50;;;5.90;99.90;;;;;;5019846;28;20081;-55
2021/11/30 00:36:58;;;;;;;3.53;2.67;;;5.90;99.90;;;;;;5020290;28;20133;-56
2021/11/30 00:39:25;;;;;;;3.33;2.75;;;5.90;99.90;;;;;;5020214;28;20049;-56
2021/11/30 00:41:58;;;;;;;3.85;2.45;;;6.00;99.90;;;;;;5019489;28;20077;-56
2021/11/30 00:44:28;;;;;;;3.70;3.00;;;6.00;99.90;;;;;;5017168;28;20160;-55
2021/11/30 00:46:55;;;;;;;5.10;3.28;;;6.10;99.90;;;;;;5016794;28;20089;-55
2021/11/30 00:49:25;;;;;;;3.88;2.78;;;6.10;99.90;;;;;;5020147;28;20049;-54
2021/11/30 00:51:53;;;;;;;3.63;2.42;;;6.10;99.90;;;;;;5020832;28;20072;-53
2021/11/30 00:54:20;;;;;;;4.45;2.97;;;6.20;99.90;;;;;;5020900;28;20528;-55
2021/11/30 00:56:48;;;;;;;3.60;2.40;;;6.20;99.90;;;;;;5021395;28;20073;-56
2021/11/30 00:59:15;;;;;;;4.30;2.95;;;6.20;99.90;;;;;;5018517;28;20137;-54
2021/11/30 01:01:42;;;;;;;4.35;3.05;;;6.20;99.90;;;;;;5025316;28;20092;-55
2021/11/30 01:04:11;;;;;;;3.78;2.80;;;6.30;99.90;;;;;;5024457;28;20053;-54
2021/11/30 01:06:38;;;;;;;4.03;2.88;;;6.30;99.90;;;;;;5025818;28;20046;-56
2021/11/30 01:09:06;;;;;;;4.45;3.08;;;6.40;99.90;;;;;;5025482;28;20053;-55
2021/11/30 01:11:33;;;;;;;3.90;2.95;;;6.40;99.90;;;;;;5025108;28;20080;-55
2021/11/30 01:14:00;;;;;;;3.92;2.53;;;6.40;99.90;;;;;;5023951;28;20093;-55
2021/11/30 01:16:27;;;;;;;4.25;2.80;;;6.50;99.90;;;;;;5024489;28;20120;-55
2021/11/30 01:18:53;;;;;;;3.28;2.75;;;6.50;99.90;;;;;;5024488;28;20141;-55
2021/11/30 01:21:22;;;;;;;3.25;2.90;;;6.60;99.90;;;;;;5024537;28;20053;-56
2021/11/30 01:23:49;;;;;;;3.63;2.83;;;6.60;99.90;;;;;;5024797;28;20229;-55
2021/11/30 01:26:16;;;;;;;3.80;3.00;;;6.60;99.90;;;;;;5024471;28;20088;-56
2021/11/30 01:28:42;;;;;;;4.18;3.53;;;6.70;99.90;;;;;;5023363;28;20512;-53
2021/11/30 01:31:09;;;;;;;5.32;3.42;;;6.80;99.90;;;;;;5023938;28;20111;-55
2021/11/30 01:33:36;;;;;;;3.42;3.00;;;6.80;99.90;;;;;;5024293;28;20113;-55
2021/11/30 01:36:04;;;;;;;4.90;3.67;;;6.90;99.90;;;;;;5024442;28;20085;-57
2021/11/30 01:38:32;;;;;;;4.15;3.38;;;6.90;99.90;;;;;;5024942;28;20080;-55
2021/11/30 01:41:00;;;;;;;4.82;3.28;;;7.00;99.90;;;;;;5022622;28;20089;-56
2021/11/30 01:43:35;;;;;;;5.05;3.35;;;7.00;99.90;;;;;;5023522;28;20623;-54
2021/11/30 01:46:08;;;;;;;4.18;3.78;;;7.00;99.90;;;;;;5023819;28;20928;-54
2021/11/30 01:51:21;;;;;;;4.53;3.45;;;7.10;99.90;;;;;;5008372;28;20084;-54
2021/11/30 01:53:48;;;;;;;5.00;3.70;;;7.10;99.90;;;;;;5023956;28;20077;-55
2021/11/30 01:56:15;;;;;;;5.35;4.15;;;7.10;99.90;;;;;;5024233;28;20124;-55
2021/11/30 01:58:42;;;;;;;4.20;3.58;;;7.10;99.90;;;;;;5024226;28;20084;-56
2021/11/30 02:01:09;;;;;;;6.30;4.18;;;7.10;99.90;;;;;;5021871;28;20125;-54
2021/11/30 02:03:36;;;;;;;4.35;3.92;;;7.10;99.90;;;;;;5023985;28;20057;-56
2021/11/30 02:06:03;;;;;;;5.00;3.80;;;7.10;99.90;;;;;;5023771;28;20175;-55
2021/11/30 02:08:30;;;;;;;6.68;5.13;;;7.10;99.90;;;;;;5024918;28;20073;-56
2021/11/30 02:10:57;;;;;;;6.32;5.00;;;7.10;99.90;;;;;;5026994;28;20567;-54
2021/11/30 02:13:24;;;;;;;6.05;4.90;;;7.20;99.90;;;;;;5026134;28;20344;-55
2021/11/30 02:15:54;;;;;;;5.28;4.75;;;7.20;99.90;;;;;;5025987;28;20089;-55
2021/11/30 02:18:23;;;;;;;6.22;5.32;;;7.20;99.90;;;;;;5026977;28;20095;-55
2021/11/30 02:20:56;;;;;;;6.57;5.10;;;7.20;99.90;;;;;;5026878;28;20089;-55
2021/11/30 02:26:07;;;;;;;5.93;4.93;;;7.20;99.90;;;;;;5026804;28;20134;-55
2021/11/30 02:28:34;;;;;;;7.68;5.80;;;7.20;99.90;;;;;;5026734;28;20088;-54
2021/11/30 02:31:00;;;;;;;5.72;5.13;;;7.20;99.90;;;;;;5023851;28;20452;-54
2021/11/30 02:33:27;;;;;;;7.25;6.47;;;7.20;99.90;;;;;;5026354;28;20049;-55
2021/11/30 02:35:54;;;;;;;8.63;6.78;;;7.20;99.90;;;;;;5028773;28;20127;-55
2021/11/30 02:38:21;;;;;;;8.40;6.40;;;7.20;99.90;;;;;;5028509;28;20168;-53
2021/11/30 02:40:47;;;;;;;8.15;6.03;;;7.20;99.90;;;;;;5027911;28;20072;-55
2021/11/30 02:43:14;;;;;;;7.25;6.53;;;7.20;99.90;;;;;;5027832;28;20076;-57
2021/11/30 02:45:41;;;;;;;8.40;6.80;;;7.20;99.90;;;;;;5024159;28;20073;-55
2021/11/30 02:48:08;;;;;;;7.38;6.45;;;7.30;99.90;;;;;;5027508;28;20115;-56
2021/11/30 02:50:41;;;;;;;6.20;5.40;;;7.30;99.90;;;;;;5027237;28;20093;-56
2021/11/30 02:53:10;;;;;;;7.75;6.65;;;7.30;99.90;;;;;;5026139;28;20081;-57
2021/11/30 02:55:37;;;;;;;6.78;6.05;;;7.30;99.90;;;;;;5025406;28;20111;-55
2021/11/30 02:58:04;;;;;;;9.13;6.35;;;7.30;99.90;;;;;;5025405;28;20077;-55
2021/11/30 03:00:31;;;;;;;7.60;6.45;;;7.40;99.90;;;;;;5024733;28;20233;-57
2021/11/30 03:02:57;;;;;;;6.72;5.68;;;7.40;99.90;;;;;;5026809;28;20158;-56
2021/11/30 03:05:24;;;;;;;7.18;6.00;;;7.40;99.90;;;;;;5026783;28;20128;-55
2021/11/30 03:07:51;;;;;;;8.15;6.63;;;7.50;99.90;;;;;;5026698;28;20072;-55
2021/11/30 03:10:19;;;;;;;6.53;5.72;;;7.50;99.90;;;;;;5025427;28;20132;-56
2021/11/30 03:12:46;;;;;;;7.22;6.22;;;7.50;99.90;;;;;;5026445;28;20041;-55
2021/11/30 03:15:15;;;;;;;8.02;6.05;;;7.50;99.90;;;;;;5025368;28;20136;-56
2021/11/30 03:17:42;;;;;;;7.22;6.32;;;7.50;99.90;;;;;;5027366;28;20099;-54
2021/11/30 03:20:10;;;;;;;7.05;5.30;;;7.50;99.90;;;;;;5026044;28;20148;-55
2021/11/30 03:22:38;;;;;;;5.55;4.70;;;7.50;99.90;;;;;;5026274;28;20590;-57
2021/11/30 03:25:08;;;;;;;6.75;5.97;;;7.60;99.90;;;;;;5025808;28;20087;-56
2021/11/30 03:27:35;;;;;;;6.68;5.90;;;7.60;99.90;;;;;;5025221;28;20085;-54
2021/11/30 03:30:07;;;;;;;7.10;5.65;;;7.60;99.90;;;;;;5025103;28;20084;-54
2021/11/30 03:35:05;;;;;;;5.40;4.80;;;7.70;99.90;;;;;;5026043;28;20096;-56
2021/11/30 03:37:32;;;;;;;7.50;5.63;;;7.70;99.90;;;;;;5026355;28;20049;-54
2021/11/30 03:39:59;;;;;;;5.80;5.20;;;7.70;99.90;;;;;;5024613;28;20221;-56
2021/11/30 03:42:26;;;;;;;7.15;5.88;;;7.70;99.90;;;;;;5026032;28;21086;-55
2021/11/30 03:44:53;;;;;;;6.78;6.07;;;7.80;99.90;;;;;;5025135;28;20133;-55
2021/11/30 03:47:21;;;;;;;7.28;6.18;;;7.80;99.90;;;;;;5026302;28;20089;-57
2021/11/30 03:49:48;;;;;;;6.60;5.40;;;7.90;99.90;;;;;;5025746;28;20440;-56
2021/11/30 03:52:14;;;;;;;8.65;6.55;;;7.90;99.90;;;;;;5026249;28;20080;-56
2021/11/30 03:54:41;;;;;;;6.40;5.40;;;7.90;99.90;;;;;;5026159;28;20421;-56
2021/11/30 03:57:08;;;;;;;7.07;5.85;;;7.90;99.90;;;;;;5026182;28;20199;-56
2021/11/30 03:59:34;;;;;;;6.07;5.47;;;7.90;99.90;;;;;;5024724;28;20085;-56
2021/11/30 04:02:01;;;;;;;6.07;4.80;;;7.90;99.90;;;;;;5025864;28;20088;-55
2021/11/30 04:04:34;;;;;;;5.30;4.53;;;8.00;99.90;;;;;;5025032;28;20064;-57
2021/11/30 04:07:01;;;;;;;6.07;5.35;;;8.00;99.90;;;;;;5024578;28;20465;-56
2021/11/30 04:09:28;;;;;;;6.50;5.32;;;8.00;99.90;;;;;;5025762;28;20099;-55
2021/11/30 04:11:54;;;;;;;5.60;4.93;;;8.00;99.90;;;;;;5025948;28;20072;-55
2021/11/30 04:14:24;;;;;;;6.07;5.38;;;8.00;99.90;;;;;;5024093;28;20041;-54
2021/11/30 04:16:51;;;;;;;5.55;4.85;;;8.10;99.90;;;;;;5025532;28;20092;-56
2021/11/30 04:19:18;;;;;;;8.32;5.95;;;8.10;99.90;;;;;;5023572;28;20354;-57
2021/11/30 04:21:45;;;;;;;5.40;4.90;;;8.10;99.90;;;;;;5026041;28;20080;-57
2021/11/30 04:24:12;;;;;;;5.40;4.90;;;8.10;99.90;;;;;;5025727;28;20432;-56
2021/11/30 04:26:39;;;;;;;5.25;4.70;;;8.10;99.90;;;;;;5025933;28;20165;-55
2021/11/30 04:29:06;;;;;;;5.97;4.82;;;8.10;99.90;;;;;;5024748;28;20042;-54
2021/11/30 04:31:35;;;;;;;5.22;4.70;;;8.10;99.90;;;;;;5004910;28;20104;-55
2021/11/30 04:34:03;;;;;;;5.70;5.10;;;8.10;99.90;;;;;;5004408;28;20049;-54
2021/11/30 04:36:31;;;;;;;5.22;4.72;;;8.10;99.90;;;;;;5025489;28;20107;-56
2021/11/30 04:38:58;;;;;;;5.30;4.53;;;8.10;99.90;;;;;;5032347;28;20103;-56
2021/11/30 04:41:25;;;;;;;8.23;4.70;;;8.10;99.90;;;;;;5031817;28;20598;-55
2021/11/30 04:43:52;;;;;;;5.03;4.50;;;8.10;99.90;;;;;;5030347;28;20076;-55
2021/11/30 04:46:27;;;;;;;5.63;4.28;;;8.20;99.90;;;;;;5031124;28;20129;-56
2021/11/30 04:48:58;;;;;;;7.10;5.10;;;8.10;99.90;;;;;;5031803;28;20413;-56
2021/11/30 04:51:28;;;;;;;5.45;4.30;;;8.20;99.90;;;;;;5031980;28;20080;-56
2021/11/30 04:53:54;;;;;;;4.40;3.90;;;8.20;99.90;;;;;;5032323;28;20713;-56
2021/11/30 04:56:21;;;;;;;6.38;4.40;;;8.20;99.90;;;;;;5032229;28;20131;-56
2021/11/30 04:58:48;;;;;;;4.53;4.13;;;8.10;99.90;;;;;;5031788;28;20484;-55
2021/11/30 05:01:17;;;;;;;4.97;4.25;;;8.20;99.90;;;;;;5030495;28;20077;-56
2021/11/30 05:03:44;;;;;;;5.82;3.63;;;8.20;99.90;;;;;;5031788;28;20049;-56
2021/11/30 05:06:12;;;;;;;4.97;4.25;;;8.20;99.90;;;;;;5031940;28;20103;-54
2021/11/30 05:08:39;;;;;;;4.13;3.53;;;8.20;99.90;;;;;;5032502;28;20466;-55
2021/11/30 05:11:05;;;;;;;4.05;3.20;;;8.20;99.90;;;;;;5031448;28;20476;-56
2021/11/30 05:13:32;;;;;;;5.78;3.90;;;8.10;99.90;;;;;;5031149;28;20076;-55
2021/11/30 05:15:59;;;;;;;4.22;2.90;;;8.10;99.90;;;;;;5030901;28;20049;-56
2021/11/30 05:18:26;;;;;;;4.43;3.13;;;8.20;99.90;;;;;;5029962;28;20490;-53
2021/11/30 05:20:54;;;;;;;3.47;2.97;;;8.10;99.90;;;;;;5030886;28;20100;-54
2021/11/30 05:23:27;;;;;;;4.15;3.05;;;8.20;99.90;;;;;;5031963;28;20053;-56
2021/11/30 05:25:56;;;;;;;4.30;2.97;;;8.20;99.90;;;;;;5031534;28;20092;-56
2021/11/30 05:28:23;;;;;;;4.47;3.00;;;8.20;99.90;;;;;;5029885;28;20077;-55
2021/11/30 05:30:50;;;;;;;4.60;3.20;;;8.30;99.90;;;;;;5030667;28;20293;-52
2021/11/30 05:33:17;;;;;;;3.55;2.78;;;8.30;99.90;;;;;;5031399;28;20144;-56
2021/11/30 05:35:44;;;;;;;4.93;3.28;;;8.20;99.90;;;;;;5029912;28;20511;-55
2021/11/30 05:38:10;;;;;;;3.13;2.83;;;8.20;99.90;;;;;;5031330;28;20140;-55
2021/11/30 05:40:41;;;;;;;3.08;2.75;;;8.20;99.90;;;;;;5031075;28;20653;-55
2021/11/30 05:43:08;;;;;;;4.30;2.83;;;8.20;99.90;;;;;;5030894;28;20088;-54
2021/11/30 05:45:35;;;;;;;3.58;2.58;;;8.20;99.90;;;;;;5030714;28;20125;-57
2021/11/30 05:48:02;;;;;;;3.53;2.50;;;8.20;99.90;;;;;;5022808;28;20514;-60
2021/11/30 05:50:29;;;;;;;3.45;2.28;;;8.10;99.90;;;;;;5006775;28;20568;-53
2021/11/30 05:52:56;;;;;;;2.30;2.00;;;8.10;99.90;;;;;;5006476;28;20050;-56
2021/11/30 05:55:22;;;;;;;3.00;2.33;;;8.10;99.90;;;;;;5008368;28;20077;-56
2021/11/30 05:57:49;;;;;;;3.83;2.33;;;8.10;99.90;;;;;;5025676;28;20517;-56
2021/11/30 06:00:17;;;;;;;2.40;1.85;;;8.10;99.90;;;;;;5023160;28;20480;-55
2021/11/30 06:05:21;;;;;;;2.83;2.40;;;8.10;99.90;;;;;;5023405;28;20220;-56
2021/11/30 06:07:47;;;;;;;5.60;2.63;;;8.10;99.90;;;;;;5024425;28;20532;-55
2021/11/30 06:10:14;;;;;;;3.58;2.55;;;8.20;99.90;;;;;;5023261;28;20136;-55
2021/11/30 06:12:41;;;;;;;3.70;2.58;;;8.20;99.90;;;;;;5022381;28;20081;-54
2021/11/30 06:15:08;;;;;;;4.35;2.10;;;8.30;99.90;;;;;;5020487;28;20469;-56
2021/11/30 06:17:35;;;;;;;2.10;1.88;;;8.30;99.90;;;;;;5025344;28;20081;-56
2021/11/30 06:20:02;;;;;;;2.83;2.35;;;8.40;99.90;;;;;;5025783;28;20100;-55
2021/11/30 06:22:29;;;;;;;3.00;2.20;;;8.40;99.90;;;;;;5022577;28;20148;-55
2021/11/30 06:24:56;;;;;;;2.08;1.80;;;8.50;99.90;;;;;;5019042;28;20590;-56
2021/11/30 06:27:23;;;;;;;2.45;1.85;;;8.50;99.90;;;;;;5019621;28;20148;-56
2021/11/30 06:29:50;;;;;;;2.22;1.92;;;8.50;99.90;;;;;;5018040;28;20149;-53
2021/11/30 06:32:16;;;;;;;2.78;1.80;;;8.50;99.90;;;;;;5019946;28;20164;-55
2021/11/30 06:34:43;;;;;;;3.63;2.20;;;8.50;99.90;;;;;;5019536;28;20145;-55
2021/11/30 06:37:10;;;;;;;2.10;1.88;;;8.50;99.90;;;;;;5017643;28;20136;-56
2021/11/30 06:39:37;;;;;;;3.00;2.40;;;8.60;99.90;;;;;;5019909;28;20119;-55
2021/11/30 06:42:04;;;;;;;2.13;1.92;;;8.60;99.90;;;;;;5017689;28;20100;-53
2021/11/30 06:44:35;;;;;;;2.13;1.85;;;8.60;99.90;;;;;;5017553;28;20077;-56
2021/11/30 06:47:03;;;;;;;2.10;1.50;;;8.70;99.90;;;;;;5019932;28;20081;-55
2021/11/30 06:49:30;;;;;;;3.13;1.60;;;8.70;99.90;;;;;;5019368;28;20135;-56
2021/11/30 06:51:57;;;;;;;3.72;1.60;;;8.70;99.90;;;;;;5018984;28;20168;-56
2021/11/30 06:54:24;;;;;;;2.63;1.50;;;8.70;99.90;;;;;;5016679;28;20100;-55
2021/11/30 06:56:50;;;;;;;1.88;1.40;;;8.70;99.90;;;;;;5017873;28;20081;-54
2021/11/30 06:59:17;;;;;;;1.70;1.45;;;8.80;99.90;;;;;;5012710;28;20136;-56
2021/11/30 07:01:44;;;;;;;2.25;1.50;;;8.80;99.90;;;;;;5018326;28;20073;-53
2021/11/30 07:04:12;;;;;;;2.10;1.50;;;8.80;99.90;;;;;;5017095;28;20623;-54
2021/11/30 07:06:58;;;;;;;3.00;1.85;;;8.80;99.90;;;;;;5018108;28;20148;-56
2021/11/30 07:09:38;;;;;;;1.88;1.60;;;8.80;99.90;;;;;;5016340;28;20049;-54
2021/11/30 07:12:23;;;;;;;1.83;1.45;;;8.90;99.90;;;;;;5014974;28;20544;-52
2021/11/30 07:14:50;;;;;;;2.95;1.95;;;8.90;99.90;;;;;;5015613;28;20678;-55
2021/11/30 07:17:17;;;;;;;1.77;1.50;;;8.90;99.90;;;;;;5017642;28;20122;-54
2021/11/30 07:19:44;;;;;;;2.10;1.42;;;8.90;99.90;;;;;;5016555;28;20161;-56
2021/11/30 07:22:11;;;;;;;2.28;1.75;;;8.90;99.90;;;;;;5017681;28;20882;-54
2021/11/30 07:24:37;;;;;;;1.60;1.50;;;9.00;99.90;;;;;;5016294;28;20053;-54
2021/11/30 07:27:04;;;;;;;2.25;1.60;;;9.00;99.90;;;;;;5010789;28;20188;-52
2021/11/30 07:29:40;;;;;;;1.70;1.55;;;9.00;99.90;;;;;;5016616;28;20045;-56
2021/11/30 07:32:08;;;;;;;1.90;1.50;;;9.00;99.90;;;;;;5018515;28;20053;-52
2021/11/30 07:34:35;;;;;;;3.10;1.70;;;9.00;99.90;;;;;;5018344;28;20398;-55
2021/11/30 07:37:02;;;;;;;1.83;1.60;;;9.00;99.90;;;;;;5017017;28;20363;-57
2021/11/30 07:39:28;;;;;;;3.33;1.90;;;9.10;99.90;;;;;;5014821;28;20557;-57
2021/11/30 07:41:55;;;;;;;2.22;1.85;;;9.00;99.90;;;;;;5017206;28;20559;-56
2021/11/30 07:44:22;;;;;;;2.80;1.88;;;9.10;99.90;;;;;;5015730;28;20555;-56
2021/11/30 07:46:48;;;;;;;1.98;1.45;;;9.10;99.90;;;;;;5017386;28;20046;-57
2021/11/30 07:49:15;;;;;;;2.55;1.70;;;9.10;99.90;;;;;;5017020;28;20140;-56
2021/11/30 07:51:45;;;;;;;1.88;1.60;;;9.10;99.90;;;;;;5013926;28;20049;-56
2021/11/30 07:54:13;;;;;;;2.65;1.70;;;9.10;99.90;;;;;;5007020;28;20060;-53
2021/11/30 07:56:40;;;;;;;2.70;2.08;;;9.20;99.90;;;;;;5015584;28;20080;-52
2021/11/30 07:59:08;;;;;;;2.38;1.73;;;9.20;99.90;;;;;;5014804;28;20103;-53
2021/11/30 08:01:34;;;;;;;2.00;1.80;;;9.20;99.90;;;;;;5016580;28;20099;-57
2021/11/30 08:04:01;;;;;;;2.70;1.80;;;9.30;99.90;;;;;;5015238;28;20092;-56
2021/11/30 08:06:29;;;;;;;2.28;2.08;;;9.30;99.90;;;;;;5014543;28;20071;-56
2021/11/30 08:08:56;;;;;;;2.17;1.80;;;9.30;99.90;;;;;;5017122;28;20683;-56
2021/11/30 08:11:23;;;;;;;1.75;1.60;;;9.30;99.90;;;;;;5016485;28;20096;-56
2021/11/30 08:13:50;;;;;;;2.50;1.52;;;9.40;99.90;;;;;;5017540;28;20413;-56
2021/11/30 08:16:21;;;;;;;1.83;1.58;;;9.40;99.90;;;;;;5015820;28;20053;-56
2021/11/30 08:18:48;;;;;;;3.10;1.85;;;9.40;99.90;;;;;;5014340;28;20598;-56
2021/11/30 08:21:15;;;;;;;4.40;2.20;;;9.40;99.90;;;;;;5013731;28;20099;-55
2021/11/30 08:23:41;;;;;;;2.15;1.90;;;9.40;99.90;;;;;;5015899;28;20164;-56
2021/11/30 08:26:12;;;;;;;3.03;1.65;;;9.30;99.90;;;;;;5015434;28;20576;-55
2021/11/30 08:28:39;;;;;;;2.30;1.63;;;9.30;99.90;;;;;;5013817;28;20060;-55
2021/11/30 08:31:06;;;;;;;1.58;1.30;;;9.30;99.90;;;;;;5014051;28;20141;-55
2021/11/30 08:33:33;;;;;;;1.75;1.48;;;9.30;99.90;;;;;;5015850;28;20060;-54
2021/11/30 08:36:00;;;;;;;1.92;1.30;;;9.30;99.90;;;;;;5014107;28;20425;-55
2021/11/30 08:38:27;;;;;;;3.80;1.60;;;9.30;99.90;;;;;;5016644;28;20556;-57
2021/11/30 08:40:55;;;;;;;2.33;1.60;;;9.40;99.90;;;;;;5016906;28;20551;-56
2021/11/30 08:43:22;;;;;;;2.15;1.70;;;9.40;99.90;;;;;;5015942;28;20429;-57
2021/11/30 08:45:49;;;;;;;1.90;1.60;;;9.40;99.90;;;;;;5013784;28;20164;-57
2021/11/30 08:48:16;;;;;;;2.70;1.77;;;9.50;99.90;;;;;;5015575;28;20132;-57
2021/11/30 08:50:43;;;;;;;2.05;1.80;;;9.50;99.90;;;;;;5016067;28;20821;-58
2021/11/30 08:53:09;;;;;;;1.80;1.42;;;9.60;99.90;;;;;;5016926;28;20119;-56
2021/11/30 08:55:36;;;;;;;2.90;2.00;;;9.60;99.90;;;;;;5012697;28;20081;-56
2021/11/30 08:58:03;;;;;;;3.55;2.40;;;9.60;99.90;;;;;;5014367;28;20084;-53
2021/11/30 09:00:31;;;;;;;3.00;2.17;;;9.70;99.90;;;;;;5009812;28;20152;-55
2021/11/30 09:02:58;;;;;;;2.78;2.03;;;9.70;99.90;;;;;;5014293;28;20187;-54
2021/11/30 09:05:25;;;;;;;5.97;2.60;;;9.70;99.90;;;;;;5010083;28;20060;-57
2021/11/30 09:07:52;;;;;;;3.03;1.92;;;9.80;99.90;;;;;;5016716;28;20271;-55
2021/11/30 09:10:19;;;;;;;2.65;2.30;;;9.80;99.90;;;;;;5014951;28;20085;-55
2021/11/30 09:12:46;;;;;;;2.30;1.75;;;9.90;99.90;;;;;;5014379;28;20469;-54
2021/11/30 09:15:13;;;;;;;2.53;2.10;;;9.90;99.90;;;;;;5015034;28;20085;-53
2021/11/30 09:17:52;;;;;;;1.95;1.52;;;10.00;99.90;;;;;;5014081;28;20099;-56
2021/11/30 09:20:19;;;;;;;1.90;1.70;;;10.00;99.90;;;;;;5016405;28;20117;-56
2021/11/30 09:22:46;;;;;;;1.98;1.70;;;10.00;99.90;;;;;;5018552;28;20372;-56
2021/11/30 09:25:13;;;;;;;1.60;1.50;;;10.10;99.90;;;;;;5019523;28;20555;-55
2021/11/30 09:27:39;;;;;;;2.55;1.73;;;10.10;99.90;;;;;;5014372;28;20502;-54
2021/11/30 09:30:08;;;;;;;2.92;1.60;;;10.10;99.90;;;;;;5018430;28;20057;-55
2021/11/30 09:32:35;;;;;;;2.45;1.85;;;10.20;99.90;;;;;;5020229;28;20500;-56
2021/11/30 09:35:05;;;;;;;1.92;1.50;;;10.30;99.90;;;;;;5019784;28;20524;-53
2021/11/30 09:37:32;;;;;;;2.10;1.77;;;10.40;99.90;;;;;;5018473;28;20045;-57
2021/11/30 09:39:59;;;;;;;2.42;1.90;;;10.40;99.90;;;;;;5016928;28;20049;-54
2021/11/30 09:42:27;;;;;;;2.90;1.88;;;10.50;99.90;;;;;;5017661;28;20144;-55
2021/11/30 09:44:54;;;;;;;3.20;1.80;;;10.50;99.90;;;;;;5018516;28;20104;-54
2021/11/30 09:47:21;;;;;;;2.40;1.80;;;10.60;99.90;;;;;;5019141;28;20084;-53
2021/11/30 09:49:47;;;;;;;2.15;1.52;;;10.60;99.90;;;;;;5018462;28;20124;-52
2021/11/30 09:52:14;;;;;;;3.30;1.90;;;10.60;99.90;;;;;;5018301;28;20081;-51
2021/11/30 09:54:41;;;;;;;2.33;2.10;;;10.60;99.90;;;;;;5019518;28;20132;-55
2021/11/30 09:57:08;;;;;;;2.20;2.00;;;10.60;99.90;;;;;;4998268;28;20111;-51
2021/11/30 09:59:34;;;;;;;2.42;2.05;;;10.60;99.90;;;;;;5009519;28;20049;-54
2021/11/30 10:02:01;;;;;;;4.00;2.25;;;10.70;99.90;;;;;;5020067;28;20057;-54
2021/11/30 10:04:28;;;;;;;3.17;2.25;;;10.70;99.90;;;;;;5016909;28;20049;-55
2021/11/30 10:06:55;;;;;;;3.25;2.72;;;10.80;99.90;;;;;;5020308;28;20089;-56
2021/11/30 10:09:24;;;;;;;3.88;2.40;;;10.90;99.90;;;;;;5019473;28;20153;-56
2021/11/30 10:12:04;;;;;;;5.60;2.20;;;10.90;99.90;;;;;;5019584;28;20049;-54
2021/11/30 10:14:35;;;;;;;3.10;2.58;;;11.00;99.90;;;;;;5012707;28;20769;-53
2021/11/30 10:17:17;;;;;;;2.60;2.13;;;11.10;99.90;;;;;;5020486;28;20107;-58
2021/11/30 10:19:51;;;;;;;3.65;2.28;;;11.20;99.90;;;;;;5011836;28;20061;-55
2021/11/30 10:22:37;;;;;;;4.65;2.10;;;11.20;99.90;;;;;;5009409;28;20041;-55
2021/11/30 10:25:18;;;;;;;2.72;2.38;;;11.20;99.90;;;;;;5017073;28;20449;-54
2021/11/30 10:27:53;;;;;;;3.22;2.40;;;11.10;99.90;;;;;;5017170;28;20474;-55
2021/11/30 10:30:22;;;;;;;3.53;2.15;;;11.20;99.90;;;;;;5019090;28;20042;-55
2021/11/30 10:32:51;;;;;;;5.20;2.70;;;11.30;99.90;;;;;;5017453;28;20140;-55
2021/11/30 10:35:18;;;;;;;3.00;2.50;;;11.30;99.90;;;;;;5018947;28;20148;-55
2021/11/30 10:37:46;;;;;;;2.92;2.50;;;11.30;99.90;;;;;;5011365;28;20608;-55
2021/11/30 10:40:15;;;;;;;3.85;2.13;;;11.30;99.90;;;;;;5027332;28;20439;-54
2021/11/30 10:42:53;;;;;;;3.10;2.55;;;11.40;99.90;;;;;;5015336;28;20053;-55
2021/11/30 10:45:30;;;;;;;3.25;2.22;;;11.40;99.90;;;;;;5021945;28;20434;-54
2021/11/30 10:48:05;;;;;;;2.70;2.25;;;11.50;99.90;;;;;;5024232;28;20057;-54
2021/11/30 10:50:36;;;;;;;3.33;2.10;;;11.50;99.90;;;;;;5024162;28;20081;-54
2021/11/30 10:53:13;;;;;;;3.13;2.38;;;11.60;99.90;;;;;;5021390;28;20508;-57
2021/11/30 10:55:45;;;;;;;4.32;2.08;;;11.60;99.90;;;;;;5006537;28;20101;-53
2021/11/30 10:58:14;;;;;;;2.55;2.28;;;11.60;99.90;;;;;;5006870;28;20076;-54
2021/11/30 11:00:42;;;;;;;2.30;1.90;;;11.70;99.90;;;;;;5006953;28;20132;-54
2021/11/30 11:03:17;;;;;;;3.00;2.00;;;11.70;99.90;;;;;;5023032;28;20054;-55
2021/11/30 11:08:47;;;;;;;2.80;2.17;;;11.70;99.90;;;;;;5014719;28;20103;-53
2021/11/30 11:11:20;;;;;;;3.08;1.73;;;11.80;99.90;;;;;;4998172;28;20085;-53
2021/11/30 11:13:47;;;;;;;1.90;1.65;;;11.70;99.90;;;;;;5017428;28;20099;-55
2021/11/30 11:16:31;;;;;;;2.67;2.17;;;11.80;99.90;;;;;;5017589;28;20140;-57
2021/11/30 11:19:00;;;;;;;2.83;1.88;;;11.80;99.90;;;;;;5018630;28;20473;-56
2021/11/30 11:21:29;;;;;;;3.08;2.40;;;11.80;99.90;;;;;;5017323;28;20147;-56
2021/11/30 11:23:59;;;;;;;3.17;2.17;;;11.70;99.90;;;;;;5017238;28;20072;-55
2021/11/30 11:26:32;;;;;;;4.45;1.92;;;11.70;99.90;;;;;;5018486;28;20117;-56
2021/11/30 11:29:06;;;;;;;3.90;2.15;;;11.70;99.90;;;;;;5018014;28;20049;-56
2021/11/30 11:31:34;;;;;;;2.80;1.80;;;11.70;99.90;;;;;;5016745;28;20103;-53
2021/11/30 11:34:02;;;;;;;2.90;1.98;;;11.70;99.90;;;;;;5018055;28;20045;-56
2021/11/30 11:36:29;;;;;;;2.55;1.70;;;11.80;99.90;;;;;;5017890;28;20433;-53
2021/11/30 11:38:57;;;;;;;2.38;1.60;;;11.80;99.90;;;;;;5017856;28;20045;-55
2021/11/30 11:41:24;;;;;;;2.67;1.95;;;11.80;99.90;;;;;;5016605;28;20122;-56
2021/11/30 11:43:52;;;;;;;2.78;2.08;;;11.80;99.90;;;;;;5016421;28;20049;-54
2021/11/30 11:46:19;;;;;;;3.33;1.90;;;11.90;99.90;;;;;;5015219;28;20107;-56
2021/11/30 11:48:47;;;;;;;2.30;1.80;;;11.90;99.90;;;;;;5016030;28;20060;-56
2021/11/30 11:51:14;;;;;;;3.10;2.00;;;12.00;99.90;;;;;;5016379;28;20700;-53
2021/11/30 11:53:51;;;;;;;3.10;1.75;;;12.00;99.90;;;;;;5017956;28;20144;-56
2021/11/30 11:56:25;;;;;;;3.10;1.80;;;12.00;99.90;;;;;;5017806;28;20536;-56
2021/11/30 11:59:16;;;;;;;2.55;1.63;;;12.00;99.90;;;;;;5016166;28;20097;-56
2021/11/30 12:02:21;;;;;;;2.50;2.15;;;12.00;99.90;;;;;;5017302;28;20091;-55
2021/11/30 12:05:04;;;;;;;3.50;2.33;;;12.00;99.90;;;;;;5014341;28;20085;-56
2021/11/30 12:07:53;;;;;;;2.70;2.20;;;12.10;99.90;;;;;;5017643;28;20080;-55
2021/11/30 12:10:27;;;;;;;2.88;1.70;;;12.20;99.90;;;;;;5013657;28;20137;-56
2021/11/30 12:12:55;;;;;;;2.95;2.00;;;12.20;99.90;;;;;;5016110;28;20085;-54
2021/11/30 12:15:23;;;;;;;3.25;2.50;;;12.10;99.90;;;;;;5016991;28;20045;-56
2021/11/30 12:17:50;;;;;;;2.60;1.95;;;12.10;99.90;;;;;;5017405;28;20088;-57
2021/11/30 12:20:19;;;;;;;2.80;2.30;;;12.10;99.90;;;;;;5017057;28;20092;-54
2021/11/30 12:22:58;;;;;;;3.22;2.33;;;12.10;99.90;;;;;;5017500;28;20080;-57
2021/11/30 12:25:26;;;;;;;5.20;3.38;;;12.10;99.90;;;;;;4999913;28;20081;-57
2021/11/30 12:27:57;;;;;;;2.80;2.47;;;12.10;99.90;;;;;;5017746;28;20095;-57
2021/11/30 12:30:50;;;;;;;2.95;2.65;;;12.10;99.90;;;;;;5014546;28;20069;-56
2021/11/30 12:33:37;;;;;;;3.00;2.43;;;12.10;99.90;;;;;;5017433;28;20088;-56
2021/11/30 12:36:13;;;;;;;3.05;2.22;;;12.20;99.90;;;;;;5004615;28;20128;-54
2021/11/30 12:38:56;;;;;;;3.08;2.30;;;12.30;99.90;;;;;;5017350;28;20144;-56
2021/11/30 12:41:23;;;;;;;3.50;2.28;;;12.30;99.90;;;;;;5017657;28;20506;-57
2021/11/30 12:43:53;;;;;;;3.05;2.35;;;12.30;99.90;;;;;;5017961;28;20049;-55
2021/11/30 12:46:36;;;;;;;2.50;2.30;;;12.30;99.90;;;;;;5016108;28;20136;-56
2021/11/30 12:49:28;;;;;;;2.22;2.03;;;12.20;99.90;;;;;;5016989;28;20160;-56
2021/11/30 12:52:17;;;;;;;3.00;2.20;;;12.30;99.90;;;;;;5012407;28;20141;-57
2021/11/30 12:55:02;;;;;;;3.08;2.38;;;12.30;99.90;;;;;;5017316;28;20061;-56
2021/11/30 12:57:29;;;;;;;3.97;2.78;;;12.40;99.90;;;;;;5020433;28;20144;-57
2021/11/30 12:59:56;;;;;;;3.88;3.42;;;12.40;99.90;;;;;;5018875;28;20139;-56
2021/11/30 13:02:31;;;;;;;3.33;2.75;;;12.40;99.90;;;;;;5018940;28;20093;-53
2021/11/30 13:05:10;;;;;;;4.60;3.33;;;12.50;99.90;;;;;;5021332;28;20231;-54
2021/11/30 13:07:49;;;;;;;4.15;2.88;;;12.50;99.90;;;;;;5019847;28;20085;-58
2021/11/30 13:10:21;;;;;;;3.85;2.92;;;12.50;99.90;;;;;;5019563;28;20508;-52
2021/11/30 13:12:48;;;;;;;4.55;3.10;;;12.40;99.90;;;;;;5019933;28;20064;-55
2021/11/30 13:15:17;;;;;;;5.22;3.70;;;12.30;99.90;;;;;;5020143;28;20061;-57
2021/11/30 13:17:44;;;;;;;3.35;3.05;;;12.40;99.90;;;;;;5021072;28;20085;-56
2021/11/30 13:20:15;;;;;;;4.30;2.72;;;12.40;99.90;;;;;;5020180;28;20081;-54